createdAt,value
2019-02-22T00:00:09.580Z,99956.82
2019-02-22T00:02:45.129Z,99953.05
2019-02-22T00:05:20.149Z,99946.55
2019-02-22T00:07:54.835Z,99944.08
2019-02-22T00:10:29.630Z,99952.19
2019-02-22T00:13:04.205Z,99950.55
2019-02-22T00:15:38.191Z,99945.48
2019-02-22T00:18:13.510Z,99950.25
2019-02-22T00:20:48.867Z,99950.19
2019-02-22T00:23:23.214Z,99949.92
2019-02-22T00:25:57.178Z,99947.34
2019-02-22T00:28:31.761Z,99943.04
2019-02-22T00:31:05.375Z,99949.84
2019-02-22T00:33:39.354Z,99951.34
2019-02-22T00:36:14.743Z,99946.70
2019-02-22T00:38:49.729Z,99948.53
2019-02-22T00:41:24.693Z,99959.21
2019-02-22T00:43:58.963Z,99956.41
2019-02-22T00:46:34.833Z,99953.04
2019-02-22T00:49:10.322Z,99950.97
2019-02-22T00:51:44.205Z,99950.94
2019-02-22T00:54:17.987Z,99956.88
2019-02-22T00:56:52.815Z,99953.34
2019-02-22T00:59:27.282Z,99951.54
2019-02-22T01:02:01.826Z,99953.20
2019-02-22T01:04:35.849Z,99948.63
2019-02-22T01:07:10.034Z,99950.56
2019-02-22T01:09:45.497Z,99949.16
2019-02-22T01:12:18.910Z,99947.92
2019-02-22T01:14:53.678Z,99945.09
2019-02-22T01:17:27.533Z,99946.75
2019-02-22T01:20:02.563Z,99950.02
2019-02-22T01:22:37.089Z,99951.33
2019-02-22T01:25:11.569Z,99941.41
2019-02-22T01:27:45.569Z,99939.94
2019-02-22T01:30:20.275Z,99938.08
2019-02-22T01:32:54.890Z,99944.92
2019-02-22T01:35:30.026Z,99943.58
2019-02-22T01:38:04.886Z,99944.42
2019-02-22T01:40:43.698Z,99946.16
2019-02-22T01:43:14.860Z,99951.59
2019-02-22T01:45:49.840Z,99953.02
2019-02-22T01:48:24.373Z,99956.36
2019-02-22T01:51:00.036Z,99951.76
2019-02-22T01:53:34.272Z,99953.79
2019-02-22T01:56:09.252Z,99959.46
2019-02-22T01:58:48.848Z,99961.80
2019-02-22T02:01:19.658Z,99959.97
2019-02-22T02:03:55.030Z,99960.63
2019-02-22T02:06:29.291Z,99963.13
2019-02-22T02:09:05.532Z,99963.97
2019-02-22T02:11:39.430Z,99969.64
2019-02-22T02:14:13.223Z,99971.55
2019-02-22T02:16:47.588Z,99972.28
2019-02-22T02:19:21.932Z,99975.52
2019-02-22T02:21:56.124Z,99985.86
2019-02-22T02:24:30.523Z,99993.67
2019-02-22T02:27:04.890Z,100000.41
2019-02-22T02:29:40.307Z,100006.85
2019-02-22T02:32:15.440Z,100015.45
2019-02-22T02:34:50.535Z,100028.08
2019-02-22T02:37:25.891Z,100027.25
2019-02-22T02:39:59.812Z,100044.12
2019-02-22T02:42:33.415Z,100049.81
2019-02-22T02:45:08.100Z,100051.70
2019-02-22T02:47:43.176Z,100058.06
2019-02-22T02:50:22.534Z,100067.55
2019-02-22T02:52:56.247Z,100070.28
2019-02-22T02:55:36.715Z,100079.22
2019-02-22T02:58:11.112Z,100084.18
2019-02-22T03:00:45.340Z,100081.48
2019-02-22T03:03:20.765Z,100083.59
2019-02-22T03:06:18.660Z,100087.50
2019-02-22T03:08:53.935Z,100088.26
2019-02-22T03:11:28.958Z,100093.86
2019-02-22T03:14:03.216Z,100099.30
2019-02-22T03:16:36.510Z,100100.80
2019-02-22T03:19:11.728Z,100108.09
2019-02-22T03:21:46.520Z,100114.95
2019-02-22T03:24:20.329Z,100123.93
2019-02-22T03:26:54.552Z,100139.16
2019-02-22T03:29:27.923Z,100147.38
2019-02-22T03:32:01.583Z,100156.13
2019-02-22T03:34:41.882Z,100161.38
2019-02-22T03:37:15.315Z,100167.22
2019-02-22T03:39:49.473Z,100180.11
2019-02-22T03:42:23.341Z,100196.69
2019-02-22T03:44:58.501Z,100200.91
2019-02-22T03:47:31.832Z,100210.44
2019-02-22T03:50:06.518Z,100216.02
2019-02-22T03:52:47.344Z,100224.59
2019-02-22T03:55:21.100Z,100232.95
2019-02-22T03:57:55.991Z,100245.03
2019-02-22T04:00:29.757Z,100263.16
2019-02-22T04:03:03.183Z,100269.27
2019-02-22T04:05:37.063Z,100265.81
2019-02-22T04:08:09.928Z,100274.13
2019-02-22T04:10:43.324Z,100281.25
2019-02-22T04:13:16.226Z,100296.86
2019-02-22T04:15:50.498Z,100302.11
2019-02-22T04:18:24.446Z,100314.84
2019-02-22T04:20:59.087Z,100324.27
2019-02-22T04:23:33.295Z,100325.84
2019-02-22T04:26:07.608Z,100335.22
2019-02-22T04:28:42.020Z,100334.34
2019-02-22T04:31:16.349Z,100340.60
2019-02-22T04:33:52.434Z,100348.03
2019-02-22T04:36:30.114Z,100356.61
2019-02-22T04:39:05.339Z,100365.38
2019-02-22T04:41:39.675Z,100373.77
2019-02-22T04:44:13.623Z,100381.58
2019-02-22T04:46:48.042Z,100392.13
2019-02-22T04:49:22.392Z,100395.33
2019-02-22T04:51:56.505Z,100406.78
2019-02-22T04:54:30.461Z,100415.40
2019-02-22T04:57:04.809Z,100429.14
2019-02-22T04:59:38.692Z,100432.59
2019-02-22T05:02:11.187Z,100433.17
2019-02-22T05:04:45.327Z,100440.98
2019-02-22T05:07:18.991Z,100450.23
2019-02-22T05:09:53.946Z,100447.56
2019-02-22T05:12:28.952Z,100463.19
2019-02-22T05:15:11.818Z,100472.48
2019-02-22T05:17:38.178Z,100468.23
2019-02-22T05:20:11.998Z,100467.45
2019-02-22T05:22:46.857Z,100481.82
2019-02-22T05:25:21.786Z,100492.80
2019-02-22T05:27:56.038Z,100519.00
2019-02-22T05:30:30.074Z,100525.36
2019-02-22T05:33:04.979Z,100532.83
2019-02-22T05:35:39.717Z,100545.77
2019-02-22T05:38:13.857Z,100551.22
2019-02-22T05:40:47.757Z,100563.30
2019-02-22T05:43:20.203Z,100586.72
2019-02-22T05:45:54.456Z,100573.23
2019-02-22T05:48:28.699Z,100593.46
2019-02-22T05:51:03.757Z,100592.77
2019-02-22T05:53:37.513Z,100597.56
2019-02-22T05:56:10.946Z,100617.20
2019-02-22T05:58:44.463Z,100620.02
2019-02-22T06:01:18.011Z,100632.80
2019-02-22T06:03:50.685Z,100635.47
2019-02-22T06:06:24.309Z,100638.08
2019-02-22T06:08:58.133Z,100650.80
2019-02-22T06:11:32.179Z,100661.20
2019-02-22T06:14:05.846Z,100667.79
2019-02-22T06:16:45.920Z,100676.63
2019-02-22T06:19:18.748Z,100681.93
2019-02-22T06:21:51.692Z,100681.78
2019-02-22T06:24:25.810Z,100699.16
2019-02-22T06:27:00.290Z,100714.69
2019-02-22T06:29:35.828Z,100726.94
2019-02-22T06:32:11.720Z,100738.63
2019-02-22T06:34:46.795Z,100752.59
2019-02-22T06:37:23.069Z,100753.84
2019-02-22T06:39:58.583Z,100749.78
2019-02-22T06:42:32.843Z,100772.70
2019-02-22T06:45:08.350Z,100777.73
2019-02-22T06:47:44.615Z,100789.97
2019-02-22T06:50:19.934Z,100791.04
2019-02-22T06:52:55.205Z,100807.73
2019-02-22T06:55:31.873Z,100819.03
2019-02-22T06:58:11.628Z,100836.83
2019-02-22T07:00:47.524Z,100837.21
2019-02-22T07:03:23.408Z,100859.41
2019-02-22T07:05:59.687Z,100872.74
2019-02-22T07:08:34.719Z,100882.41
2019-02-22T07:11:28.273Z,100892.50
2019-02-22T07:14:04.442Z,100899.11
2019-02-22T07:16:40.886Z,100898.23
2019-02-22T07:19:16.560Z,100911.41
2019-02-22T07:21:52.988Z,100915.56
2019-02-22T07:24:29.204Z,100927.39
2019-02-22T07:27:04.607Z,100932.77
2019-02-22T07:29:40.686Z,100947.92
2019-02-22T07:32:16.623Z,100961.88
2019-02-22T07:34:54.029Z,100977.52
2019-02-22T07:37:31.420Z,100982.81
2019-02-22T07:40:08.224Z,101002.81
2019-02-22T07:42:43.194Z,101009.75
2019-02-22T07:45:19.998Z,101027.50
2019-02-22T07:47:57.737Z,101026.09
2019-02-22T07:50:34.986Z,101031.78
2019-02-22T07:53:12.854Z,101041.98
2019-02-22T07:55:50.193Z,101052.71
2019-02-22T07:58:27.511Z,101056.95
2019-02-22T08:01:05.578Z,101066.34
2019-02-22T08:03:42.767Z,101067.98
2019-02-22T08:06:19.543Z,101082.76
2019-02-22T08:08:56.313Z,101094.65
2019-02-22T08:11:33.548Z,101084.48
2019-02-22T08:14:11.217Z,101097.95
2019-02-22T08:16:46.345Z,101100.30
2019-02-22T08:19:22.570Z,101117.69
2019-02-22T08:22:02.754Z,101109.25
2019-02-22T08:24:38.677Z,101122.17
2019-02-22T08:27:14.827Z,101125.16
2019-02-22T08:29:50.431Z,101141.52
2019-02-22T08:32:28.112Z,101147.55
2019-02-22T08:35:06.130Z,101160.53
2019-02-22T08:37:44.760Z,101164.74
2019-02-22T08:40:22.641Z,101164.25
2019-02-22T08:42:58.713Z,101185.19
2019-02-22T08:45:34.598Z,101181.96
2019-02-22T08:48:13.946Z,101190.31
2019-02-22T08:50:49.984Z,101203.48
2019-02-22T08:53:26.866Z,101205.00
2019-02-22T08:56:04.164Z,101216.30
2019-02-22T08:58:40.586Z,101213.75
2019-02-22T09:01:17.283Z,101226.92
2019-02-22T09:03:54.329Z,101232.38
2019-02-22T09:06:30.426Z,101225.89
2019-02-22T09:09:07.572Z,101226.64
2019-02-22T09:11:43.642Z,101231.24
2019-02-22T09:14:20.428Z,101243.84
2019-02-22T09:16:55.899Z,101250.13
2019-02-22T09:19:32.046Z,101251.00
2019-02-22T09:22:08.289Z,101262.28
2019-02-22T09:24:44.956Z,101267.00
2019-02-22T09:27:19.131Z,101269.94
2019-02-22T09:29:58.812Z,101272.92
2019-02-22T09:32:31.250Z,101274.52
2019-02-22T09:35:07.079Z,101279.73
2019-02-22T09:37:43.530Z,101286.89
2019-02-22T09:40:19.611Z,101284.41
2019-02-22T09:42:56.376Z,101291.52
2019-02-22T09:45:33.788Z,101303.34
2019-02-22T09:48:10.344Z,101314.05
2019-02-22T09:50:48.620Z,101307.19
2019-02-22T09:53:24.562Z,101313.56
2019-02-22T09:56:02.628Z,101305.55
2019-02-22T09:58:38.557Z,101316.58
2019-02-22T10:01:16.373Z,101326.25
2019-02-22T10:03:52.088Z,101329.02
2019-02-22T10:06:29.198Z,101342.81
2019-02-22T10:09:04.853Z,101355.00
2019-02-22T10:11:40.379Z,101350.16
2019-02-22T10:14:15.943Z,101354.75
2019-02-22T10:16:52.712Z,101363.34
2019-02-22T10:19:27.874Z,101371.89
2019-02-22T10:22:04.895Z,101380.73
2019-02-22T10:24:41.029Z,101380.94
2019-02-22T10:27:17.613Z,101389.23
2019-02-22T10:29:53.508Z,101386.97
2019-02-22T10:32:30.447Z,101385.48
2019-02-22T10:35:08.200Z,101379.98
2019-02-22T10:37:46.196Z,101387.69
2019-02-22T10:40:24.545Z,101387.25
2019-02-22T10:43:01.434Z,101389.44
2019-02-22T10:45:38.637Z,101394.90
2019-02-22T10:48:15.724Z,101397.14
2019-02-22T10:50:52.012Z,101395.70
2019-02-22T10:53:28.156Z,101404.16
2019-02-22T10:56:04.347Z,101391.27
2019-02-22T10:58:39.917Z,101402.30
2019-02-22T11:01:16.431Z,101405.31
2019-02-22T11:03:53.463Z,101408.22
2019-02-22T11:06:31.481Z,101420.91
2019-02-22T11:09:09.126Z,101422.02
2019-02-22T11:11:45.781Z,101426.53
2019-02-22T11:14:28.685Z,101432.22
2019-02-22T11:16:57.608Z,101430.73
2019-02-22T11:19:33.879Z,101435.25
2019-02-22T11:22:11.831Z,101435.29
2019-02-22T11:24:49.780Z,101435.72
2019-02-22T11:27:26.249Z,101442.58
2019-02-22T11:30:01.843Z,101451.32
2019-02-22T11:32:36.987Z,101449.92
2019-02-22T11:35:15.476Z,101458.16
2019-02-22T11:37:53.670Z,101457.87
2019-02-22T11:40:30.277Z,101458.16
2019-02-22T11:43:08.398Z,101465.74
2019-02-22T11:45:57.853Z,101471.16
2019-02-22T11:48:38.378Z,101466.79
2019-02-22T11:51:15.866Z,101474.69
2019-02-22T11:53:51.813Z,101477.05
2019-02-22T11:56:28.358Z,101472.59
2019-02-22T11:59:04.474Z,101472.88
2019-02-22T12:01:42.749Z,101462.75
2019-02-22T12:04:17.090Z,101464.27
2019-02-22T12:06:52.863Z,101467.94
2019-02-22T12:09:28.737Z,101463.83
2019-02-22T12:12:04.821Z,101474.64
2019-02-22T12:14:38.356Z,101475.28
2019-02-22T12:17:13.837Z,101469.15
2019-02-22T12:19:49.423Z,101477.28
2019-02-22T12:22:27.839Z,101473.94
2019-02-22T12:25:04.458Z,101489.05
2019-02-22T12:27:40.079Z,101495.17
2019-02-22T12:30:17.568Z,101500.58
2019-02-22T12:32:55.002Z,101490.66
2019-02-22T12:35:31.292Z,101486.70
2019-02-22T12:38:06.927Z,101493.38
2019-02-22T12:40:41.254Z,101496.72
2019-02-22T12:43:18.379Z,101496.40
2019-02-22T12:45:54.147Z,101504.16
2019-02-22T12:48:29.722Z,101504.09
2019-02-22T12:51:06.820Z,101509.88
2019-02-22T12:53:42.246Z,101506.05
2019-02-22T12:56:18.683Z,101503.62
2019-02-22T12:58:56.739Z,101507.02
2019-02-22T13:01:33.709Z,101510.56
2019-02-22T13:04:09.844Z,101517.42
2019-02-22T13:06:44.908Z,101516.44
2019-02-22T13:09:21.051Z,101520.53
2019-02-22T13:11:57.432Z,101515.70
2019-02-22T13:14:32.480Z,101519.72
2019-02-22T13:17:07.387Z,101528.68
2019-02-22T13:19:42.644Z,101527.67
2019-02-22T13:22:18.096Z,101523.40
2019-02-22T13:24:52.797Z,101534.95
2019-02-22T13:27:27.864Z,101532.97
2019-02-22T13:30:04.638Z,101524.20
2019-02-22T13:32:42.382Z,101521.83
2019-02-22T13:35:19.608Z,101528.69
2019-02-22T13:37:55.657Z,101531.28
2019-02-22T13:40:31.576Z,101534.28
2019-02-22T13:43:07.480Z,101543.77
2019-02-22T13:45:43.457Z,101542.61
2019-02-22T13:48:21.615Z,101546.31
2019-02-22T13:50:57.904Z,101543.30
2019-02-22T13:53:32.945Z,101545.17
2019-02-22T13:56:09.430Z,101558.30
2019-02-22T13:58:45.139Z,101559.07
2019-02-22T14:01:20.716Z,101556.78
2019-02-22T14:03:55.920Z,101561.89
2019-02-22T14:06:31.124Z,101562.31
2019-02-22T14:09:06.740Z,101569.33
2019-02-22T14:11:41.719Z,101577.03
2019-02-22T14:14:16.874Z,101574.05
2019-02-22T14:16:51.848Z,101585.78
2019-02-22T14:19:27.217Z,101588.98
2019-02-22T14:22:03.615Z,101590.00
2019-02-22T14:24:37.993Z,101593.07
2019-02-22T14:27:14.369Z,101604.22
2019-02-22T14:29:51.643Z,101599.41
2019-02-22T14:32:27.602Z,101606.64
2019-02-22T14:35:02.726Z,101606.18
2019-02-22T14:37:37.871Z,101611.09
2019-02-22T14:40:15.286Z,101614.55
2019-02-22T14:42:52.126Z,101619.02
2019-02-22T14:45:27.645Z,101623.81
2019-02-22T14:48:03.374Z,101624.42
2019-02-22T14:50:40.226Z,101630.45
2019-02-22T14:53:19.635Z,101639.79
2019-02-22T14:55:56.134Z,101638.33
2019-02-22T14:58:32.972Z,101653.95
2019-02-22T15:01:09.004Z,101657.89
2019-02-22T15:03:45.634Z,101661.46
2019-02-22T15:06:23.819Z,101669.14
2019-02-22T15:09:00.640Z,101673.94
2019-02-22T15:11:36.581Z,101672.86
2019-02-22T15:14:14.897Z,101685.63
2019-02-22T15:16:59.353Z,101688.03
2019-02-22T15:19:35.997Z,101693.95
2019-02-22T15:22:13.939Z,101696.02
2019-02-22T15:24:49.299Z,101688.95
2019-02-22T15:27:26.770Z,101694.14
2019-02-22T15:30:04.203Z,101702.71
2019-02-22T15:32:41.168Z,101704.02
2019-02-22T15:35:18.888Z,101711.05
2019-02-22T15:37:54.883Z,101712.33
2019-02-22T15:40:33.868Z,101719.48
2019-02-22T15:43:10.675Z,101731.01
2019-02-22T15:45:48.062Z,101733.02
2019-02-22T15:48:25.431Z,101736.48
2019-02-22T15:51:01.084Z,101736.30
2019-02-22T15:53:37.416Z,101757.84
2019-02-22T15:56:18.451Z,101760.19
2019-02-22T15:58:54.434Z,101765.34
2019-02-22T16:01:31.582Z,101769.05
2019-02-22T16:04:25.620Z,101775.00
2019-02-22T16:07:02.541Z,101779.84
2019-02-22T16:09:38.518Z,101790.20
2019-02-22T16:12:15.913Z,101797.59
2019-02-22T16:14:52.935Z,101800.34
2019-02-22T16:17:29.504Z,101806.34
2019-02-22T16:20:04.694Z,101812.05
2019-02-22T16:22:41.416Z,101811.62
2019-02-22T16:25:20.332Z,101825.69
2019-02-22T16:27:56.751Z,101835.62
2019-02-22T16:30:36.403Z,101840.47
2019-02-22T16:33:12.635Z,101842.01
2019-02-22T16:35:51.671Z,101845.19
2019-02-22T16:38:30.447Z,101846.63
2019-02-22T16:41:07.120Z,101856.09
2019-02-22T16:43:41.706Z,101854.45
2019-02-22T16:46:15.200Z,101863.34
2019-02-22T16:48:48.839Z,101864.39
2019-02-22T16:51:23.086Z,101864.92
2019-02-22T16:53:58.367Z,101865.45
2019-02-22T16:56:33.239Z,101874.14
2019-02-22T16:59:07.399Z,101873.64
2019-02-22T17:01:43.453Z,101881.06
2019-02-22T17:04:18.975Z,101886.75
2019-02-22T17:06:54.568Z,101888.24
2019-02-22T17:09:33.300Z,101901.28
2019-02-22T17:12:08.251Z,101906.35
2019-02-22T17:14:44.250Z,101914.23
2019-02-22T17:17:19.150Z,101914.38
2019-02-22T17:19:56.789Z,101919.52
2019-02-22T17:22:33.051Z,101911.00
2019-02-22T17:25:10.444Z,101915.06
2019-02-22T17:27:46.679Z,101916.05
2019-02-22T17:30:24.491Z,101918.88
2019-02-22T17:32:59.572Z,101927.72
2019-02-22T17:35:34.130Z,101926.94
2019-02-22T17:38:09.404Z,101934.27
2019-02-22T17:40:44.276Z,101933.79
2019-02-22T17:43:20.605Z,101945.32
2019-02-22T17:45:57.197Z,101941.55
2019-02-22T17:48:32.147Z,101948.22
2019-02-22T17:51:07.711Z,101958.61
2019-02-22T17:53:42.252Z,101958.02
2019-02-22T17:56:18.171Z,101965.61
2019-02-22T17:58:52.450Z,101967.41
2019-02-22T18:01:27.127Z,101975.38
2019-02-22T18:04:01.558Z,101966.84
2019-02-22T18:06:36.963Z,101980.28
2019-02-22T18:09:13.588Z,101977.78
2019-02-22T18:11:48.362Z,101984.50
2019-02-22T18:14:23.309Z,101984.55
2019-02-22T18:17:08.050Z,101990.45
2019-02-22T18:19:36.570Z,101991.02
2019-02-22T18:22:11.302Z,101996.13
2019-02-22T18:24:47.402Z,101998.30
2019-02-22T18:27:23.430Z,102005.62
2019-02-22T18:29:57.008Z,102011.12
2019-02-22T18:32:31.351Z,102004.04
2019-02-22T18:35:04.794Z,102013.16
2019-02-22T18:37:38.984Z,102017.55
2019-02-22T18:40:14.523Z,102018.01
2019-02-22T18:42:47.472Z,102021.60
2019-02-22T18:45:21.732Z,102028.69
2019-02-22T18:47:55.004Z,102030.23
2019-02-22T18:50:29.288Z,102029.77
2019-02-22T18:53:03.619Z,102032.80
2019-02-22T18:55:49.157Z,102035.86
2019-02-22T18:58:16.054Z,102037.67
2019-02-22T19:00:48.727Z,102037.22
2019-02-22T19:03:22.674Z,102040.28
2019-02-22T19:05:56.079Z,102048.05
2019-02-22T19:08:32.523Z,102051.77
2019-02-22T19:11:04.352Z,102054.41
2019-02-22T19:13:37.643Z,102058.39
2019-02-22T19:16:13.371Z,102069.81
2019-02-22T19:18:46.610Z,102069.22
2019-02-22T19:21:19.499Z,102071.13
2019-02-22T19:23:53.364Z,102077.23
2019-02-22T19:26:26.648Z,102078.16
2019-02-22T19:28:59.637Z,102079.76
2019-02-22T19:31:32.494Z,102081.73
2019-02-22T19:34:04.901Z,102087.70
2019-02-22T19:36:37.338Z,102098.60
2019-02-22T19:39:11.081Z,102098.37
2019-02-22T19:42:04.190Z,102102.45
2019-02-22T19:44:37.598Z,102109.69
2019-02-22T19:47:10.928Z,102108.17
2019-02-22T19:49:44.325Z,102113.64
2019-02-22T19:52:17.356Z,102120.66
2019-02-22T19:54:50.577Z,102123.91
2019-02-22T19:57:24.148Z,102129.40
2019-02-22T19:59:57.655Z,102135.89
2019-02-22T20:02:31.769Z,102144.12
2019-02-22T20:05:05.605Z,102143.72
2019-02-22T20:07:39.430Z,102146.45
2019-02-22T20:10:17.729Z,102142.82
2019-02-22T20:12:48.367Z,102155.34
2019-02-22T20:15:21.803Z,102152.41
2019-02-22T20:17:55.161Z,102163.77
2019-02-22T20:20:27.764Z,102170.13
2019-02-22T20:23:02.613Z,102173.88
2019-02-22T20:25:35.409Z,102178.52
2019-02-22T20:28:07.394Z,102181.08
2019-02-22T20:30:41.200Z,102185.27
2019-02-22T20:33:14.047Z,102180.81
2019-02-22T20:35:47.438Z,102183.44
2019-02-22T20:38:21.188Z,102186.52
2019-02-22T20:40:54.203Z,102191.66
2019-02-22T20:43:28.304Z,102198.59
2019-02-22T20:46:01.565Z,102194.04
2019-02-22T20:48:35.042Z,102193.77
2019-02-22T20:51:08.511Z,102200.39
2019-02-22T20:53:41.503Z,102198.31
2019-02-22T20:56:14.524Z,102211.91
2019-02-22T20:58:47.943Z,102212.72
2019-02-22T21:01:20.919Z,102218.39
2019-02-22T21:03:54.288Z,102221.62
2019-02-22T21:06:27.210Z,102222.95
2019-02-22T21:09:00.833Z,102234.59
2019-02-22T21:11:34.100Z,102241.95
2019-02-22T21:14:07.570Z,102236.51
2019-02-22T21:16:40.043Z,102235.31
2019-02-22T21:19:13.934Z,102237.83
2019-02-22T21:21:47.617Z,102237.00
2019-02-22T21:24:20.082Z,102240.48
2019-02-22T21:26:53.921Z,102246.10
2019-02-22T21:29:27.453Z,102247.88
2019-02-22T21:31:59.831Z,102260.43
2019-02-22T21:34:32.893Z,102265.96
2019-02-22T21:37:06.148Z,102272.14
2019-02-22T21:39:40.182Z,102276.67
2019-02-22T21:42:20.177Z,102270.22
2019-02-22T21:44:48.825Z,102275.41
2019-02-22T21:47:21.681Z,102278.32
2019-02-22T21:49:56.530Z,102279.80
2019-02-22T21:52:29.958Z,102285.20
2019-02-22T21:55:02.447Z,102283.67
2019-02-22T21:57:34.930Z,102284.31
2019-02-22T22:00:08.825Z,102288.39
2019-02-22T22:02:42.267Z,102293.53
2019-02-22T22:05:14.707Z,102299.78
2019-02-22T22:07:47.776Z,102299.53
2019-02-22T22:10:20.274Z,102298.37
2019-02-22T22:12:53.714Z,102300.59
2019-02-22T22:15:27.228Z,102306.41
2019-02-22T22:17:59.676Z,102301.27
2019-02-22T22:20:34.220Z,102298.63
2019-02-22T22:23:07.645Z,102303.48
2019-02-22T22:25:41.289Z,102300.23
2019-02-22T22:28:15.245Z,102303.72
2019-02-22T22:30:48.615Z,102306.80
2019-02-22T22:33:22.075Z,102314.72
2019-02-22T22:35:55.084Z,102313.14
2019-02-22T22:38:28.550Z,102311.06
2019-02-22T22:41:01.708Z,102305.93
2019-02-22T22:43:35.821Z,102312.67
2019-02-22T22:46:08.637Z,102310.65
2019-02-22T22:48:50.212Z,102316.69
2019-02-22T22:51:17.843Z,102314.70
2019-02-22T22:53:50.688Z,102313.32
2019-02-22T22:56:24.218Z,102316.69
2019-02-22T22:58:58.387Z,102315.05
2019-02-22T23:01:34.839Z,102315.22
2019-02-22T23:04:08.934Z,102318.64
2019-02-22T23:06:42.764Z,102317.99
2019-02-22T23:09:21.542Z,102320.34
2019-02-22T23:11:56.106Z,102318.54
2019-02-22T23:14:29.821Z,102310.61
2019-02-22T23:17:03.535Z,102310.41
2019-02-22T23:19:36.923Z,102307.02
2019-02-22T23:22:10.597Z,102306.00
2019-02-22T23:24:44.305Z,102311.30
2019-02-22T23:27:17.633Z,102311.70
2019-02-22T23:29:51.930Z,102313.63
2019-02-22T23:32:26.341Z,102317.42
2019-02-22T23:34:59.286Z,102315.09
2019-02-22T23:37:33.134Z,102312.30
2019-02-22T23:40:06.842Z,102313.73
2019-02-22T23:42:39.743Z,102316.27
2019-02-22T23:45:13.123Z,102324.13
2019-02-22T23:47:46.956Z,102329.83
2019-02-22T23:50:20.735Z,102333.51
2019-02-22T23:52:54.008Z,102338.09
2019-02-22T23:55:27.959Z,102344.12
2019-02-22T23:58:02.739Z,102348.86
